Time;durP1;ratioP1;P1;durP2;ratioP2;P2;SDS_P1;SDS_P2;PMS_P1;PMS_P2;Temp;Humidity;BMP_temperature;BMP_pressure;BME280_temperature;BME280_humidity;BME280_pressure;Samples;Min_cycle;Max_cycle;Signal;HPM_P1;HPM_P2
2022/07/04 00:00:19;;;;;;;7.38;3.35;;;;;;;21.93;52.08;102029.69;5068248;28;20025;-69
2022/07/04 00:02:46;;;;;;;5.38;3.15;;;;;;;21.91;51.99;102021.75;5067091;28;20037;-70
2022/07/04 00:05:12;;;;;;;6.10;2.70;;;;;;;21.81;52.41;102025.28;5067282;28;20029;-70
2022/07/04 00:07:42;;;;;;;3.70;2.88;;;;;;;21.81;51.92;102028.03;5066935;28;20039;-69
2022/07/04 00:10:09;;;;;;;4.67;2.73;;;;;;;21.70;52.67;102030.97;5066767;28;20471;-70
2022/07/04 00:12:35;;;;;;;5.05;3.00;;;;;;;21.65;53.28;102028.22;5067374;28;20028;-69
2022/07/04 00:15:02;;;;;;;6.95;2.50;;;;;;;21.79;52.40;102032.09;5067565;28;20101;-70
2022/07/04 00:17:28;;;;;;;5.35;2.83;;;;;;;21.70;52.39;102026.31;5066711;28;20033;-69
2022/07/04 00:19:53;;;;;;;5.63;3.08;;;;;;;21.64;52.13;102026.59;5067107;28;20376;-69
2022/07/04 00:29:29;;;;;;;5.38;2.70;;;;;;;21.65;52.32;102025.50;5066157;28;20155;-69
2022/07/04 00:31:55;;;;;;;5.68;2.47;;;;;;;21.56;52.01;102016.97;5066855;28;20040;-70
2022/07/04 00:34:20;;;;;;;2.30;2.10;;;;;;;21.61;52.06;102016.19;5067372;28;20060;-70
2022/07/04 00:36:46;;;;;;;3.90;2.35;;;;;;;21.55;52.49;102015.34;5066667;28;20280;-70
2022/07/04 00:39:11;;;;;;;4.80;2.50;;;;;;;21.52;52.84;102007.66;5067259;28;20426;-69
2022/07/04 00:41:36;;;;;;;3.28;2.63;;;;;;;21.48;52.35;102013.97;5072062;28;20044;-69
2022/07/04 00:44:07;;;;;;;3.95;2.78;;;;;;;21.48;52.68;102016.69;5066463;28;20037;-69
2022/07/04 00:46:33;;;;;;;3.47;2.38;;;;;;;21.44;52.79;102013.69;5067211;28;20031;-70
2022/07/04 00:48:59;;;;;;;6.40;2.45;;;;;;;21.46;53.13;102018.88;5070688;28;20047;-70
2022/07/04 00:51:26;;;;;;;4.78;2.15;;;;;;;21.46;52.77;102019.69;5071017;28;20119;-69
2022/07/04 00:53:55;;;;;;;6.80;2.63;;;;;;;21.32;52.96;102015.00;5070508;28;20047;-70
2022/07/04 00:56:25;;;;;;;7.80;2.95;;;;;;;21.41;52.97;102016.09;5070818;28;20040;-70
2022/07/04 00:58:52;;;;;;;5.93;2.43;;;;;;;21.46;52.38;102018.88;5070359;28;20202;-69
2022/07/04 01:01:19;;;;;;;5.05;2.42;;;;;;;21.43;53.12;102020.22;5070317;28;20029;-69
2022/07/04 01:03:44;;;;;;;4.40;2.60;;;;;;;21.46;52.91;102021.63;5070989;28;20402;-69
2022/07/04 01:06:10;;;;;;;5.05;2.05;;;;;;;21.38;52.85;102022.97;5070758;28;20012;-68
2022/07/04 01:08:40;;;;;;;8.95;3.78;;;;;;;21.38;52.79;102014.75;5069849;28;20044;-69
2022/07/04 01:11:05;;;;;;;5.15;2.70;;;;;;;21.44;52.90;102026.53;5052868;28;20029;-70
2022/07/04 01:13:31;;;;;;;5.07;2.65;;;;;;;21.38;52.77;102020.22;5070271;28;20089;-69
2022/07/04 01:15:56;;;;;;;5.57;2.72;;;;;;;21.33;52.61;102022.09;5070048;28;20036;-69
2022/07/04 01:18:22;;;;;;;9.25;3.28;;;;;;;21.20;53.41;102019.88;5070945;28;20020;-69
2022/07/04 01:20:47;;;;;;;4.38;2.20;;;;;;;21.21;53.61;102014.13;5070170;28;20047;-71
2022/07/04 01:23:13;;;;;;;7.43;3.10;;;;;;;21.28;53.35;102008.41;5070554;28;20063;-70
2022/07/04 01:25:38;;;;;;;7.13;3.20;;;;;;;21.28;53.17;102006.50;5070618;28;20557;-70
2022/07/04 01:28:06;;;;;;;5.95;3.58;;;;;;;21.17;53.50;102010.28;5070143;28;20437;-69
2022/07/04 01:30:31;;;;;;;6.32;3.35;;;;;;;21.26;53.28;101996.94;5071436;28;20028;-69
2022/07/04 01:32:56;;;;;;;3.53;2.95;;;;;;;21.18;52.74;102006.47;5071088;28;20510;-69
2022/07/04 01:35:22;;;;;;;5.10;3.40;;;;;;;21.19;53.19;102001.84;5070862;28;20427;-69
2022/07/04 01:37:48;;;;;;;8.98;2.97;;;;;;;21.05;53.14;101996.00;5071357;28;20124;-69
2022/07/04 01:40:14;;;;;;;7.25;3.00;;;;;;;21.17;53.00;101995.81;5075208;28;20109;-68
2022/07/04 01:42:40;;;;;;;6.47;3.88;;;;;;;21.18;53.02;101995.53;5070226;28;20025;-69
2022/07/04 01:45:06;;;;;;;6.93;3.72;;;;;;;21.06;53.35;101994.94;5070800;28;20036;-70
2022/07/04 01:47:32;;;;;;;5.75;4.00;;;;;;;21.10;54.05;101997.94;5069786;28;20071;-69
2022/07/04 01:49:57;;;;;;;6.90;3.78;;;;;;;21.07;53.67;101999.28;5070030;28;20060;-70
2022/07/04 01:52:24;;;;;;;8.85;3.90;;;;;;;21.08;53.98;101994.66;5070623;28;20503;-68
2022/07/04 01:54:49;;;;;;;7.20;5.00;;;;;;;21.00;53.56;102002.25;5069075;28;20037;-70
2022/07/04 01:57:14;;;;;;;7.35;4.55;;;;;;;20.94;54.01;101992.38;5070078;28;20434;-70
2022/07/04 02:02:24;;;;;;;9.18;4.25;;;;;;;21.04;53.77;102005.31;5070114;28;20043;-69
2022/07/04 02:04:50;;;;;;;6.03;3.85;;;;;;;21.05;53.92;102001.47;5069316;28;20032;-69
2022/07/04 02:07:15;;;;;;;14.60;4.78;;;;;;;21.01;54.00;102000.38;5069405;28;20039;-69
2022/07/04 02:09:41;;;;;;;8.35;5.88;;;;;;;21.10;53.67;101998.78;5069374;28;20629;-69
2022/07/04 02:14:51;;;;;;;7.30;4.82;;;;;;;20.98;54.41;101998.97;5069155;28;20031;-70
2022/07/04 02:17:16;;;;;;;9.77;4.88;;;;;;;20.98;53.70;102000.88;5069122;28;20484;-69
2022/07/04 02:19:42;;;;;;;9.20;5.47;;;;;;;20.86;53.83;102003.81;5069647;28;20500;-69
2022/07/04 02:22:07;;;;;;;11.00;5.97;;;;;;;20.92;54.37;101991.00;5066990;28;20051;-69
2022/07/04 02:24:33;;;;;;;6.65;5.10;;;;;;;20.99;53.74;102002.53;5069389;28;20357;-70
2022/07/04 02:26:58;;;;;;;7.85;5.57;;;;;;;20.98;53.62;102000.88;5069392;28;20028;-70
2022/07/04 02:29:23;;;;;;;7.25;5.18;;;;;;;20.78;54.36;102003.50;5068696;28;20462;-70
2022/07/04 02:31:49;;;;;;;9.27;5.18;;;;;;;20.88;53.75;101989.88;5068970;28;20503;-68
2022/07/04 02:34:14;;;;;;;8.50;5.07;;;;;;;20.88;54.47;101993.44;5069066;28;20036;-70
2022/07/04 02:36:40;;;;;;;11.60;5.85;;;;;;;20.82;54.32;101991.78;5068295;28;20016;-69
2022/07/04 02:39:05;;;;;;;7.25;4.85;;;;;;;20.86;54.29;101992.88;5069098;28;20203;-69
2022/07/04 02:41:32;;;;;;;8.20;5.43;;;;;;;20.82;54.07;101993.69;5063148;28;20392;-70
2022/07/04 02:43:58;;;;;;;10.15;5.07;;;;;;;20.70;54.84;101987.59;5085240;28;20447;-69
2022/07/04 02:46:24;;;;;;;12.30;5.53;;;;;;;20.80;55.13;101987.66;5068876;28;20032;-68
2022/07/04 02:48:49;;;;;;;8.27;4.57;;;;;;;20.75;54.43;101991.19;5068558;28;20484;-69
2022/07/04 02:51:15;;;;;;;6.90;4.43;;;;;;;20.79;54.14;101989.59;5068834;28;20040;-70
2022/07/04 02:53:40;;;;;;;8.35;5.22;;;;;;;20.77;54.59;101988.19;5068761;28;20702;-70
2022/07/04 02:56:06;;;;;;;5.68;4.68;;;;;;;20.80;54.01;101984.91;5068017;28;20045;-70
2022/07/04 02:58:32;;;;;;;9.45;4.93;;;;;;;20.65;54.29;101982.94;5068334;28;20043;-69
2022/07/04 03:00:58;;;;;;;6.60;4.78;;;;;;;20.66;53.92;101987.31;5068283;28;20109;-70
2022/07/04 03:03:24;;;;;;;7.35;5.18;;;;;;;20.57;54.01;101986.16;5068255;28;20036;-69
2022/07/04 03:05:49;;;;;;;8.55;4.57;;;;;;;20.58;54.51;101979.59;5068260;28;20035;-68
2022/07/04 03:08:14;;;;;;;14.25;5.10;;;;;;;20.72;53.66;101983.53;5068184;28;20032;-70
2022/07/04 03:10:40;;;;;;;7.63;4.72;;;;;;;20.73;53.54;101989.81;5066870;28;20051;-70
2022/07/04 03:13:05;;;;;;;7.47;4.63;;;;;;;20.59;53.91;101992.19;5068645;28;20032;-68
2022/07/04 03:15:31;;;;;;;8.85;4.18;;;;;;;20.56;54.01;101992.69;5068011;28;20559;-70
2022/07/04 03:17:57;;;;;;;12.88;4.88;;;;;;;20.52;54.67;101996.25;5067993;28;20124;-69
2022/07/04 03:20:22;;;;;;;5.93;4.28;;;;;;;20.44;54.55;101994.81;5068465;28;20314;-68
2022/07/04 03:22:48;;;;;;;5.78;4.50;;;;;;;20.56;54.22;101998.16;5067308;28;20048;-68
2022/07/04 03:25:13;;;;;;;11.48;5.00;;;;;;;20.53;54.11;101990.50;5067801;28;20041;-69
2022/07/04 03:27:39;;;;;;;4.70;4.07;;;;;;;20.44;54.42;101989.34;5067863;28;20377;-69
2022/07/04 03:30:05;;;;;;;7.85;3.88;;;;;;;20.48;54.43;101993.19;5067946;28;20468;-69
2022/07/04 03:32:30;;;;;;;4.78;3.85;;;;;;;20.43;54.98;101993.16;5067928;28;20035;-68
2022/07/04 03:34:55;;;;;;;10.95;4.57;;;;;;;20.44;54.10;101996.72;5067423;28;20106;-70
2022/07/04 03:37:21;;;;;;;5.93;3.72;;;;;;;20.37;54.01;101994.22;5067291;28;20036;-68
2022/07/04 03:39:46;;;;;;;7.70;3.45;;;;;;;20.33;54.70;101995.81;5049253;28;20492;-69
2022/07/04 03:42:12;;;;;;;5.20;4.07;;;;;;;20.37;54.36;101993.38;5067518;28;20024;-70
2022/07/04 03:44:37;;;;;;;9.65;4.35;;;;;;;20.46;53.99;101994.56;5066983;28;20372;-70
2022/07/04 03:47:03;;;;;;;14.10;4.15;;;;;;;20.35;54.49;101998.28;5066572;28;20068;-70
2022/07/04 03:49:28;;;;;;;5.30;3.63;;;;;;;20.40;54.53;101995.59;5067044;28;20035;-71
2022/07/04 03:51:54;;;;;;;9.15;4.28;;;;;;;20.34;54.17;102007.56;5029693;28;20431;-69
2022/07/04 03:54:19;;;;;;;10.02;3.85;;;;;;;20.40;54.25;102009.25;5066011;28;20020;-69
2022/07/04 03:56:45;;;;;;;6.65;3.63;;;;;;;20.49;53.94;102008.50;5070340;28;20040;-69
2022/07/04 03:59:10;;;;;;;6.13;3.42;;;;;;;20.48;54.24;102011.50;5067378;28;20515;-70
2022/07/04 04:01:36;;;;;;;5.78;3.55;;;;;;;20.30;55.13;102014.63;5064696;28;20037;-68
2022/07/04 04:06:44;;;;;;;4.90;3.50;;;;;;;20.49;53.86;102015.88;5066579;28;20506;-69
2022/07/04 04:09:16;;;;;;;5.63;3.42;;;;;;;20.41;54.28;102016.34;5048945;28;20052;-70
2022/07/04 04:11:42;;;;;;;9.15;4.75;;;;;;;20.47;54.09;102013.41;5063394;28;20561;-68
2022/07/04 04:14:07;;;;;;;8.68;4.35;;;;;;;20.38;54.92;102009.53;5066340;28;20110;-69
2022/07/04 04:16:33;;;;;;;9.80;4.53;;;;;;;20.43;54.40;102019.66;5067647;28;20033;-72
2022/07/04 04:18:58;;;;;;;9.77;4.38;;;;;;;20.44;54.28;102016.66;5066837;28;20051;-70
2022/07/04 04:21:23;;;;;;;7.85;4.20;;;;;;;20.59;54.00;102024.13;5073761;28;20486;-69
2022/07/04 04:23:49;;;;;;;6.32;3.75;;;;;;;20.46;55.04;102017.22;5070445;28;20036;-70
2022/07/04 04:26:14;;;;;;;7.15;4.68;;;;;;;20.53;55.13;102028.75;5070221;28;20048;-69
2022/07/04 04:28:40;;;;;;;8.63;3.85;;;;;;;20.65;54.23;102023.09;5051019;28;20040;-69
2022/07/04 04:31:05;;;;;;;7.20;4.53;;;;;;;20.73;54.15;102028.88;5062807;28;20090;-66
2022/07/04 04:33:31;;;;;;;7.25;4.13;;;;;;;20.78;54.34;102028.09;5071094;28;20078;-66
2022/07/04 04:35:56;;;;;;;5.68;4.30;;;;;;;20.79;54.29;102033.31;5070605;28;20037;-66
2022/07/04 04:38:21;;;;;;;7.43;4.38;;;;;;;20.78;54.07;102028.09;5069789;28;20040;-66
2022/07/04 04:40:47;;;;;;;10.88;5.07;;;;;;;20.69;54.35;102029.66;5070178;28;20396;-70
2022/07/04 04:43:12;;;;;;;7.03;4.50;;;;;;;20.64;54.53;102022.25;5070962;28;20090;-70
2022/07/04 04:45:39;;;;;;;9.80;4.78;;;;;;;20.82;53.50;102021.84;5070751;28;20029;-70
2022/07/04 04:48:05;;;;;;;11.10;5.35;;;;;;;20.80;54.15;102028.63;5071270;28;20056;-69
2022/07/04 04:50:30;;;;;;;11.02;4.45;;;;;;;20.87;53.58;102027.31;5071227;28;20067;-69
2022/07/04 04:52:57;;;;;;;8.80;5.55;;;;;;;20.62;54.05;102034.53;5069746;28;20487;-69
2022/07/04 04:55:22;;;;;;;9.85;4.93;;;;;;;20.77;53.99;102034.66;5070767;28;20091;-69
2022/07/04 04:57:48;;;;;;;6.70;4.88;;;;;;;20.78;54.13;102022.63;5070359;28;20296;-69
2022/07/04 05:00:14;;;;;;;8.10;5.40;;;;;;;20.89;53.76;102030.59;5070463;28;20025;-70
2022/07/04 05:02:39;;;;;;;8.13;4.90;;;;;;;20.83;53.87;102030.84;5071395;28;20060;-69
2022/07/04 05:05:06;;;;;;;9.27;5.70;;;;;;;20.96;53.37;102031.22;5069458;28;20044;-69
2022/07/04 05:07:31;;;;;;;9.55;4.50;;;;;;;20.72;54.85;102032.69;5051917;28;20078;-68
2022/07/04 05:09:58;;;;;;;11.38;4.68;;;;;;;20.88;54.15;102033.59;5051582;28;20442;-70
2022/07/04 05:12:25;;;;;;;8.85;5.55;;;;;;;20.95;53.92;102024.09;5051834;28;20120;-69
2022/07/04 05:14:50;;;;;;;10.05;5.35;;;;;;;21.03;53.89;102035.66;5069602;28;20032;-69
2022/07/04 05:17:16;;;;;;;10.68;5.63;;;;;;;20.94;53.95;102036.13;5070666;28;20353;-66
2022/07/04 05:19:41;;;;;;;7.50;4.82;;;;;;;20.98;54.35;102041.88;5069458;28;20032;-67
2022/07/04 05:22:06;;;;;;;6.93;4.90;;;;;;;21.06;54.12;102040.56;5069826;28;20032;-66
2022/07/04 05:24:32;;;;;;;9.90;5.78;;;;;;;20.91;55.10;102041.28;5069950;28;20423;-66
2022/07/04 05:26:57;;;;;;;9.18;5.00;;;;;;;20.82;55.13;102045.59;5068959;28;20040;-65
2022/07/04 05:29:23;;;;;;;11.88;5.82;;;;;;;20.88;54.88;102048.09;5067811;28;20036;-68
2022/07/04 05:31:48;;;;;;;12.13;5.68;;;;;;;20.73;55.77;102044.44;5065397;28;20037;-67
2022/07/04 05:34:13;;;;;;;11.85;5.38;;;;;;;20.69;56.63;102049.63;5067142;28;20033;-67
2022/07/04 05:36:39;;;;;;;10.32;5.72;;;;;;;21.07;55.40;102056.69;5067377;28;20507;-67
2022/07/04 05:39:04;;;;;;;6.68;5.35;;;;;;;21.41;54.72;102054.41;5066898;28;20043;-66
2022/07/04 05:41:29;;;;;;;10.52;5.65;;;;;;;21.39;54.36;102057.41;5068698;28;20078;-66
2022/07/04 05:43:55;;;;;;;11.60;6.13;;;;;;;21.43;54.65;102052.22;5068626;28;20047;-66
2022/07/04 05:46:20;;;;;;;8.55;5.70;;;;;;;21.70;53.90;102053.69;5074278;28;20039;-67
2022/07/04 05:48:46;;;;;;;10.35;5.57;;;;;;;21.62;55.06;102045.19;5051777;28;20240;-66
2022/07/04 05:51:11;;;;;;;19.08;6.13;;;;;;;21.87;53.91;102044.44;5069521;28;20380;-67
2022/07/04 05:53:36;;;;;;;11.05;6.05;;;;;;;21.89;53.88;102045.00;5064727;28;20090;-66
2022/07/04 05:56:02;;;;;;;6.35;5.05;;;;;;;22.02;54.05;102042.56;5065723;28;20871;-67
2022/07/04 05:58:28;;;;;;;8.07;5.35;;;;;;;21.99;54.24;102045.03;5068791;28;20400;-67
2022/07/04 06:00:53;;;;;;;9.35;5.25;;;;;;;22.12;53.99;102033.53;5045596;28;20033;-66
2022/07/04 06:03:19;;;;;;;9.98;4.63;;;;;;;22.20;53.86;102036.56;5068964;28;20013;-66
2022/07/04 06:05:44;;;;;;;11.10;5.07;;;;;;;22.12;54.65;102039.84;5069589;28;20028;-65
2022/07/04 06:08:09;;;;;;;6.88;4.07;;;;;;;22.33;53.79;102038.72;5068593;28;20268;-65
2022/07/04 06:10:35;;;;;;;12.95;4.93;;;;;;;22.43;53.55;102052.44;5068376;28;20043;-66
2022/07/04 06:13:00;;;;;;;10.60;4.53;;;;;;;22.26;54.52;102054.63;5069561;28;20051;-65
2022/07/04 06:15:26;;;;;;;7.55;3.75;;;;;;;22.09;55.49;102059.56;5072550;28;20023;-65
2022/07/04 06:17:51;;;;;;;6.78;2.38;;;;;;;21.78;56.70;102058.63;5089449;28;20043;-67
2022/07/04 06:20:17;;;;;;;17.23;3.08;;;;;;;22.14;56.10;102054.06;5072422;28;20037;-66
2022/07/04 06:22:47;;;;;;;6.20;1.88;;;;;;;22.58;54.67;102046.97;5068733;28;20028;-67
2022/07/04 06:25:13;;;;;;;8.52;2.35;;;;;;;22.67;54.39;102053.56;5068539;28;20391;-68
2022/07/04 06:27:40;;;;;;;10.73;2.42;;;;;;;22.93;54.00;102042.53;5069389;28;20036;-68
2022/07/04 06:30:06;;;;;;;8.10;2.15;;;;;;;23.06;53.51;102045.50;5072245;28;20062;-67
2022/07/04 06:33:01;;;;;;;8.32;1.98;;;;;;;22.80;54.48;102040.38;5069025;28;20112;-68
2022/07/04 06:35:45;;;;;;;14.20;2.92;;;;;;;22.05;56.46;102044.78;5063668;28;20356;-65
2022/07/04 06:38:28;;;;;;;10.82;2.72;;;;;;;22.45;56.53;102041.19;5066496;28;20490;-68
2022/07/04 06:40:55;;;;;;;8.05;3.00;;;;;;;22.78;55.98;102037.88;5049638;28;20032;-68
2022/07/04 06:43:22;;;;;;;11.52;3.28;;;;;;;22.53;56.72;102032.41;5065099;28;20116;-66
2022/07/04 06:45:47;;;;;;;13.55;2.83;;;;;;;22.77;56.19;102030.78;5065662;28;20031;-67
2022/07/04 06:48:13;;;;;;;10.38;2.33;;;;;;;22.47;56.84;102034.34;5070986;28;20028;-66
2022/07/04 06:50:38;;;;;;;10.18;2.78;;;;;;;23.13;55.44;102039.72;5067101;28;20039;-66
2022/07/04 06:53:06;;;;;;;14.00;3.05;;;;;;;22.69;55.88;102037.66;5067016;28;20045;-65
2022/07/04 06:55:32;;;;;;;10.05;3.35;;;;;;;23.23;54.86;102045.97;5068115;28;20123;-65
2022/07/04 06:57:58;;;;;;;13.93;2.75;;;;;;;23.23;54.73;102043.25;5067981;28;20635;-65
2022/07/04 07:00:24;;;;;;;11.93;2.45;;;;;;;23.74;53.77;102040.31;5067286;28;20127;-68
2022/07/04 07:02:49;;;;;;;10.02;3.25;;;;;;;23.47;54.87;102035.22;5066933;28;20446;-66
2022/07/04 07:05:15;;;;;;;16.00;4.15;;;;;;;23.04;55.33;102042.22;5066541;28;20041;-67
2022/07/04 07:07:41;;;;;;;10.75;2.30;;;;;;;22.90;55.50;102040.34;5067011;28;20035;-67
2022/07/04 07:10:06;;;;;;;16.23;2.58;;;;;;;22.69;55.99;102042.31;5077272;28;20095;-67
2022/07/04 07:12:34;;;;;;;10.50;2.10;;;;;;;22.79;55.79;102034.06;5087242;28;20048;-67
2022/07/04 07:15:00;;;;;;;11.10;2.42;;;;;;;23.61;53.63;102038.97;5074711;28;20032;-66
2022/07/04 07:17:26;;;;;;;13.90;2.72;;;;;;;23.37;53.75;102033.34;5075302;28;20040;-66
2022/07/04 07:19:52;;;;;;;11.75;2.33;;;;;;;23.37;53.80;102029.81;5068755;28;20040;-66
2022/07/04 07:22:17;;;;;;;16.83;2.47;;;;;;;23.51;53.10;102033.53;5069150;28;20059;-66
2022/07/04 07:24:43;;;;;;;8.68;2.47;;;;;;;23.96;53.03;102033.28;5055944;28;20487;-65
2022/07/04 07:27:09;;;;;;;14.07;2.50;;;;;;;23.11;54.49;102026.31;5067100;28;20028;-67
2022/07/04 07:29:36;;;;;;;8.35;2.20;;;;;;;22.95;54.36;102035.69;5072559;28;20310;-67
2022/07/04 07:32:01;;;;;;;11.25;3.05;;;;;;;23.80;52.09;102031.75;5066149;28;20025;-66
2022/07/04 07:34:27;;;;;;;17.00;3.30;;;;;;;23.79;52.23;102043.00;5066258;28;20111;-65
2022/07/04 07:36:53;;;;;;;19.02;4.15;;;;;;;23.77;51.85;102032.31;5066412;28;20495;-65
2022/07/04 07:39:19;;;;;;;14.65;3.20;;;;;;;23.78;52.02;102036.72;5048028;28;20075;-67
2022/07/04 07:41:44;;;;;;;8.48;2.88;;;;;;;23.85;52.23;102031.72;5066189;28;20028;-66
2022/07/04 07:44:09;;;;;;;10.60;3.28;;;;;;;23.45;53.34;102041.00;5065671;28;20041;-65
2022/07/04 07:46:35;;;;;;;11.38;3.15;;;;;;;23.96;51.14;102038.75;5065837;28;20036;-64
2022/07/04 07:49:01;;;;;;;22.02;3.97;;;;;;;23.63;53.20;102041.44;5066266;28;20035;-65
2022/07/04 07:51:26;;;;;;;12.48;4.07;;;;;;;24.05;50.91;102044.50;5066438;28;20036;-65
2022/07/04 07:53:52;;;;;;;7.18;2.60;;;;;;;24.03;50.38;102057.72;5065903;28;20035;-64
2022/07/04 07:56:17;;;;;;;11.23;2.67;;;;;;;24.51;48.59;102054.00;5064204;28;20040;-65
2022/07/04 07:58:43;;;;;;;6.18;2.38;;;;;;;24.44;48.92;102053.53;5062861;28;20033;-65
2022/07/04 08:01:08;;;;;;;10.45;3.80;;;;;;;24.75;48.73;102045.84;5066215;28;20040;-65
2022/07/04 08:06:17;;;;;;;14.13;4.22;;;;;;;24.34;50.25;102059.13;5064473;28;20040;-67
2022/07/04 08:08:43;;;;;;;9.60;3.17;;;;;;;23.76;49.75;102054.56;5065427;28;20404;-65
2022/07/04 08:11:10;;;;;;;11.10;2.38;;;;;;;24.54;48.23;102063.63;5065684;28;20037;-65
2022/07/04 08:13:35;;;;;;;14.45;5.53;;;;;;;24.24;48.37;102059.19;5067175;28;20039;-65
2022/07/04 08:16:03;;;;;;;8.18;2.75;;;;;;;24.61;47.62;102056.66;5070962;28;20923;-66
2022/07/04 08:18:28;;;;;;;6.50;2.50;;;;;;;24.32;47.89;102053.91;5043525;28;20040;-65
2022/07/04 08:20:54;;;;;;;8.45;2.63;;;;;;;24.07;48.06;102056.84;5066200;28;20071;-65
2022/07/04 08:23:19;;;;;;;9.07;3.65;;;;;;;24.44;47.59;102061.78;5066301;28;20032;-66
2022/07/04 08:25:45;;;;;;;13.52;3.55;;;;;;;24.35;48.35;102058.03;5065901;28;20094;-66
2022/07/04 08:28:10;;;;;;;7.47;2.63;;;;;;;24.82;47.32;102054.59;5066072;28;20036;-65
2022/07/04 08:30:36;;;;;;;6.88;2.22;;;;;;;24.34;46.91;102057.19;5066677;28;20669;-65
2022/07/04 08:33:01;;;;;;;6.53;2.50;;;;;;;24.69;45.92;102052.47;5065853;28;20032;-64
2022/07/04 08:35:27;;;;;;;13.68;2.45;;;;;;;24.30;46.08;102056.13;5048117;28;20024;-68
2022/07/04 08:37:55;;;;;;;6.22;1.60;;;;;;;24.41;46.07;102060.41;5065984;28;20499;-70
2022/07/04 08:40:28;;;;;;;4.72;1.73;;;;;;;24.49;45.77;102063.69;5068659;28;20051;-71
2022/07/04 08:42:54;;;;;;;6.05;2.80;;;;;;;24.49;45.63;102060.94;5066093;28;20031;-70
2022/07/04 08:45:27;;;;;;;4.22;1.70;;;;;;;24.89;45.43;102061.38;5066880;28;20036;-70
2022/07/04 08:48:02;;;;;;;6.40;2.05;;;;;;;24.85;45.52;102060.31;5066640;28;20435;-69
2022/07/04 08:50:51;;;;;;;9.80;2.75;;;;;;;25.02;45.11;102062.63;5065873;28;20044;-69
2022/07/04 08:53:20;;;;;;;3.88;1.40;;;;;;;24.74;44.68;102067.03;5066263;28;20502;-69
2022/07/04 08:58:33;;;;;;;2.65;1.50;;;;;;;26.19;41.85;102069.06;5066532;28;20090;-69
2022/07/04 09:01:02;;;;;;;4.88;1.23;;;;;;;25.70;41.31;102071.44;5066334;28;20111;-72
2022/07/04 09:03:29;;;;;;;5.25;1.73;;;;;;;25.49;42.73;102068.13;5066482;28;20040;-71
2022/07/04 09:05:55;;;;;;;8.10;2.40;;;;;;;24.88;44.14;102068.00;5065672;28;20093;-70
2022/07/04 09:08:21;;;;;;;4.75;1.88;;;;;;;25.52;43.35;102063.97;5063258;28;20067;-69
2022/07/04 09:10:48;;;;;;;3.60;1.42;;;;;;;26.06;41.17;102065.13;5068164;28;20524;-70
2022/07/04 09:13:14;;;;;;;8.10;1.67;;;;;;;25.28;43.46;102069.47;5071117;28;20029;-70
2022/07/04 09:15:44;;;;;;;9.80;1.65;;;;;;;26.07;41.52;102071.47;5075246;28;20028;-69
2022/07/04 09:18:24;;;;;;;6.20;1.33;;;;;;;26.37;41.04;102076.50;5070635;28;20514;-69
2022/07/04 09:20:50;;;;;;;5.07;1.10;;;;;;;26.12;40.47;102065.88;5069556;28;20215;-69
2022/07/04 09:23:21;;;;;;;2.33;0.90;;;;;;;26.47;41.45;102070.00;5069877;28;20059;-69
2022/07/04 09:25:48;;;;;;;4.95;1.30;;;;;;;26.69;39.15;102067.41;5051971;28;20116;-69
2022/07/04 09:28:27;;;;;;;6.20;1.50;;;;;;;26.90;38.51;102065.94;5068875;28;20463;-69
2022/07/04 09:30:53;;;;;;;4.07;1.30;;;;;;;26.17;39.55;102056.69;5069651;28;20058;-69
2022/07/04 09:33:18;;;;;;;6.45;1.45;;;;;;;26.51;40.20;102054.50;5069974;28;20483;-69
2022/07/04 09:35:44;;;;;;;5.70;1.48;;;;;;;26.14;40.45;102052.63;5069488;28;20429;-70
2022/07/04 09:38:11;;;;;;;2.33;1.17;;;;;;;26.20;39.71;102065.19;5069525;28;20043;-69
2022/07/04 09:43:23;;;;;;;2.78;1.25;;;;;;;26.24;39.54;102068.97;5068363;28;20035;-68
2022/07/04 09:46:00;;;;;;;7.25;2.20;;;;;;;25.97;40.09;102060.56;5068476;28;20028;-69
2022/07/04 09:48:26;;;;;;;6.05;2.00;;;;;;;26.70;39.69;102055.22;5069202;28;20028;-67
2022/07/04 09:50:52;;;;;;;3.80;1.17;;;;;;;27.34;37.90;102062.63;5050041;28;20485;-70
2022/07/04 09:53:17;;;;;;;4.75;1.90;;;;;;;27.28;37.28;102055.53;5068396;28;20446;-68
2022/07/04 09:55:45;;;;;;;4.53;1.00;;;;;;;27.09;37.90;102046.50;5068557;28;20033;-68
2022/07/04 09:58:12;;;;;;;4.07;1.10;;;;;;;27.43;37.51;102041.41;5068776;28;20040;-69
2022/07/04 10:00:42;;;;;;;2.45;0.90;;;;;;;27.04;37.58;102044.69;5069107;28;20028;-71
2022/07/04 10:03:25;;;;;;;2.78;0.82;;;;;;;25.82;40.08;102056.13;5069443;28;20452;-69
2022/07/04 10:06:06;;;;;;;4.88;1.38;;;;;;;26.35;40.32;102050.34;5068352;28;20368;-69
2022/07/04 10:08:33;;;;;;;4.90;1.35;;;;;;;25.97;41.15;102057.81;5045823;28;20024;-70
2022/07/04 10:11:00;;;;;;;4.93;1.50;;;;;;;25.86;40.63;102051.66;5061658;28;20539;-70
2022/07/04 10:13:26;;;;;;;2.80;1.30;;;;;;;25.82;40.65;102042.34;5052928;28;20044;-70
2022/07/04 10:15:51;;;;;;;4.53;1.30;;;;;;;25.63;40.90;102055.25;5069149;28;20321;-70
2022/07/04 10:18:19;;;;;;;4.82;1.52;;;;;;;25.41;39.98;102051.44;5068558;28;20187;-71
2022/07/04 10:20:46;;;;;;;1.88;1.10;;;;;;;25.26;40.48;102047.75;5067483;28;20550;-70
2022/07/04 10:23:12;;;;;;;4.22;1.35;;;;;;;25.38;39.56;102052.00;5067821;28;20076;-69
2022/07/04 10:25:39;;;;;;;3.65;1.50;;;;;;;24.77;41.34;102049.94;5069063;28;20040;-71
2022/07/04 10:28:04;;;;;;;4.40;1.25;;;;;;;25.20;40.99;102057.16;5067615;28;20066;-72
2022/07/04 10:30:32;;;;;;;3.33;1.25;;;;;;;25.29;40.69;102051.84;5067889;28;20040;-71
2022/07/04 10:33:01;;;;;;;7.45;1.52;;;;;;;25.98;39.83;102059.47;5068704;28;20033;-70
2022/07/04 10:35:47;;;;;;;2.10;1.00;;;;;;;26.42;39.44;102048.00;5068404;28;20131;-70
2022/07/04 10:38:12;;;;;;;4.10;1.10;;;;;;;26.54;39.42;102045.59;5068623;28;20091;-72
2022/07/04 10:40:57;;;;;;;9.63;1.52;;;;;;;26.41;39.83;102046.38;5067068;28;20271;-71
2022/07/04 10:46:30;;;;;;;2.35;1.25;;;;;;;26.60;38.46;102052.66;5066793;28;20037;-72
2022/07/04 10:49:06;;;;;;;3.72;1.27;;;;;;;26.74;37.85;102048.03;4985896;28;20099;-71
2022/07/04 10:51:43;;;;;;;3.40;1.30;;;;;;;27.05;38.17;102048.25;4985259;28;20130;-69
2022/07/04 10:54:20;;;;;;;4.60;1.33;;;;;;;26.21;38.50;102038.44;4983868;28;20042;-71
2022/07/04 10:56:53;;;;;;;4.50;1.45;;;;;;;26.70;37.22;102044.22;4985421;28;20030;-74
2022/07/04 10:59:29;;;;;;;2.40;0.73;;;;;;;27.08;37.38;102039.38;4985698;28;20038;-72
2022/07/04 11:02:06;;;;;;;3.22;1.30;;;;;;;27.18;37.46;102040.00;4983240;28;20034;-71
2022/07/04 11:04:50;;;;;;;2.45;1.08;;;;;;;26.61;37.08;102046.03;4976848;28;20042;-71
2022/07/04 11:07:18;;;;;;;2.55;1.27;;;;;;;27.15;37.34;102034.25;4985030;28;20062;-71
2022/07/04 11:09:44;;;;;;;4.68;1.65;;;;;;;27.44;36.94;102032.81;4967869;28;20062;-70
2022/07/04 11:12:10;;;;;;;3.42;1.15;;;;;;;27.22;35.84;102045.72;4984721;28;20375;-71
2022/07/04 11:14:45;;;;;;;3.17;1.10;;;;;;;27.00;36.79;102035.38;4990606;28;20473;-71
2022/07/04 11:17:32;;;;;;;3.47;1.30;;;;;;;26.97;36.81;102044.25;4991590;28;20101;-71
2022/07/04 11:20:03;;;;;;;2.15;0.90;;;;;;;27.54;35.53;102029.84;4984815;28;20117;-71
2022/07/04 11:22:29;;;;;;;3.43;0.90;;;;;;;27.28;35.63;102033.44;4984332;28;20093;-70
2022/07/04 11:24:55;;;;;;;0.85;0.60;;;;;;;27.69;34.92;102032.25;4990437;28;20094;-71
2022/07/04 11:27:22;;;;;;;1.08;0.70;;;;;;;27.74;33.97;102028.56;5062411;28;20024;-71
2022/07/04 11:29:54;;;;;;;6.80;0.82;;;;;;;27.89;32.28;102031.00;5065910;28;20076;-70
2022/07/04 11:32:21;;;;;;;0.98;0.63;;;;;;;28.22;33.43;102020.53;5065749;28;20028;-71
2022/07/04 11:34:48;;;;;;;2.08;1.00;;;;;;;27.74;33.30;102029.38;5064195;28;20372;-70
2022/07/04 11:37:15;;;;;;;2.65;0.60;;;;;;;27.85;34.43;102038.28;5064877;28;20045;-72
2022/07/04 11:39:40;;;;;;;1.40;0.70;;;;;;;28.13;33.92;102025.16;5062199;28;20051;-71
2022/07/04 11:45:07;;;;;;;1.58;0.80;;;;;;;28.11;34.19;102021.94;5064841;28;20083;-71
2022/07/04 11:47:37;;;;;;;1.50;0.93;;;;;;;28.15;33.38;102017.38;5066415;28;20028;-72
2022/07/04 11:50:11;;;;;;;2.90;0.80;;;;;;;28.79;32.17;102022.34;5063720;28;20400;-71
2022/07/04 11:52:37;;;;;;;2.50;0.80;;;;;;;28.50;32.25;102017.28;5064607;28;20047;-71